sensor_id;sensor_type;location;lat;lon;timestamp;temperature;humidity
17565;DHT22;62994;52.126;5.596;2023-04-15T00:00:25;11.00;99.90
17565;DHT22;62994;52.126;5.596;2023-04-15T00:02:53;10.90;99.90
17565;DHT22;62994;52.126;5.596;2023-04-15T00:05:20;10.80;99.90
17565;DHT22;62994;52.126;5.596;2023-04-15T00:07:52;10.90;99.90
17565;DHT22;62994;52.126;5.596;2023-04-15T00:10:19;10.80;99.90
17565;DHT22;62994;52.126;5.596;2023-04-15T00:12:46;10.60;99.90
17565;DHT22;62994;52.126;5.596;2023-04-15T00:15:13;10.50;99.90
17565;DHT22;62994;52.126;5.596;2023-04-15T00:17:41;10.50;99.90
17565;DHT22;62994;52.126;5.596;2023-04-15T00:20:08;10.60;99.90
17565;DHT22;62994;52.126;5.596;2023-04-15T00:22:36;10.50;99.90
17565;DHT22;62994;52.126;5.596;2023-04-15T00:25:05;10.50;99.90
17565;DHT22;62994;52.126;5.596;2023-04-15T00:27:32;10.50;99.90
17565;DHT22;62994;52.126;5.596;2023-04-15T00:29:59;10.50;99.90
17565;DHT22;62994;52.126;5.596;2023-04-15T00:32:26;10.50;99.90
17565;DHT22;62994;52.126;5.596;2023-04-15T00:34:53;10.50;99.90
17565;DHT22;62994;52.126;5.596;2023-04-15T00:37:20;10.50;99.90
17565;DHT22;62994;52.126;5.596;2023-04-15T00:39:48;10.50;99.90
17565;DHT22;62994;52.126;5.596;2023-04-15T00:42:17;10.50;99.90
17565;DHT22;62994;52.126;5.596;2023-04-15T00:44:46;10.40;99.90
17565;DHT22;62994;52.126;5.596;2023-04-15T00:47:13;10.40;99.90
17565;DHT22;62994;52.126;5.596;2023-04-15T00:49:42;10.20;99.90
17565;DHT22;62994;52.126;5.596;2023-04-15T00:52:09;10.20;99.90
17565;DHT22;62994;52.126;5.596;2023-04-15T00:54:36;10.20;99.90
17565;DHT22;62994;52.126;5.596;2023-04-15T00:57:05;10.10;99.90
17565;DHT22;62994;52.126;5.596;2023-04-15T00:59:34;10.20;99.90
17565;DHT22;62994;52.126;5.596;2023-04-15T01:02:01;10.20;99.90
17565;DHT22;62994;52.126;5.596;2023-04-15T01:04:29;10.10;99.90
17565;DHT22;62994;52.126;5.596;2023-04-15T01:06:59;10.10;99.90
17565;DHT22;62994;52.126;5.596;2023-04-15T01:09:27;10.10;99.90
17565;DHT22;62994;52.126;5.596;2023-04-15T01:11:54;10.00;99.90
17565;DHT22;62994;52.126;5.596;2023-04-15T01:14:21;10.00;99.90
17565;DHT22;62994;52.126;5.596;2023-04-15T01:16:51;10.00;99.90
17565;DHT22;62994;52.126;5.596;2023-04-15T01:19:19;10.00;99.90
17565;DHT22;62994;52.126;5.596;2023-04-15T01:21:46;9.90;99.90
17565;DHT22;62994;52.126;5.596;2023-04-15T01:24:14;9.80;99.90
17565;DHT22;62994;52.126;5.596;2023-04-15T01:26:45;9.80;99.90
17565;DHT22;62994;52.126;5.596;2023-04-15T01:29:13;9.70;99.90
17565;DHT22;62994;52.126;5.596;2023-04-15T01:31:40;9.70;99.90
17565;DHT22;62994;52.126;5.596;2023-04-15T01:34:08;9.70;99.90
17565;DHT22;62994;52.126;5.596;2023-04-15T01:36:35;9.70;99.90
17565;DHT22;62994;52.126;5.596;2023-04-15T01:39:02;9.60;99.90
17565;DHT22;62994;52.126;5.596;2023-04-15T01:41:31;9.60;99.90
17565;DHT22;62994;52.126;5.596;2023-04-15T01:44:00;9.60;99.90
17565;DHT22;62994;52.126;5.596;2023-04-15T01:46:27;9.50;99.90
17565;DHT22;62994;52.126;5.596;2023-04-15T01:48:54;9.60;99.90
17565;DHT22;62994;52.126;5.596;2023-04-15T01:51:21;9.60;99.90
17565;DHT22;62994;52.126;5.596;2023-04-15T01:53:48;9.60;99.90
17565;DHT22;62994;52.126;5.596;2023-04-15T01:56:15;9.50;99.90
17565;DHT22;62994;52.126;5.596;2023-04-15T01:58:43;9.40;99.90
17565;DHT22;62994;52.126;5.596;2023-04-15T02:01:11;9.40;99.90
17565;DHT22;62994;52.126;5.596;2023-04-15T02:03:39;9.40;99.90
17565;DHT22;62994;52.126;5.596;2023-04-15T02:06:06;9.40;99.90
17565;DHT22;62994;52.126;5.596;2023-04-15T02:08:33;9.40;99.90
17565;DHT22;62994;52.126;5.596;2023-04-15T02:11:00;9.40;99.90
17565;DHT22;62994;52.126;5.596;2023-04-15T02:13:28;9.30;99.90
17565;DHT22;62994;52.126;5.596;2023-04-15T02:15:55;9.30;99.90
17565;DHT22;62994;52.126;5.596;2023-04-15T02:18:24;9.30;99.90
17565;DHT22;62994;52.126;5.596;2023-04-15T02:20:51;9.20;99.90
17565;DHT22;62994;52.126;5.596;2023-04-15T02:23:18;9.20;99.90
17565;DHT22;62994;52.126;5.596;2023-04-15T02:25:45;9.20;99.90
17565;DHT22;62994;52.126;5.596;2023-04-15T02:28:13;9.20;99.90
17565;DHT22;62994;52.126;5.596;2023-04-15T02:30:40;9.20;99.90
17565;DHT22;62994;52.126;5.596;2023-04-15T02:33:07;9.10;99.90
17565;DHT22;62994;52.126;5.596;2023-04-15T02:35:35;9.10;99.90
17565;DHT22;62994;52.126;5.596;2023-04-15T02:38:06;9.10;99.90
17565;DHT22;62994;52.126;5.596;2023-04-15T02:40:33;9.10;99.90
17565;DHT22;62994;52.126;5.596;2023-04-15T02:43:00;9.00;99.90
17565;DHT22;62994;52.126;5.596;2023-04-15T02:45:27;9.00;99.90
17565;DHT22;62994;52.126;5.596;2023-04-15T02:47:54;9.00;99.90
17565;DHT22;62994;52.126;5.596;2023-04-15T02:50:26;9.00;99.90
17565;DHT22;62994;52.126;5.596;2023-04-15T02:52:54;8.90;99.90
17565;DHT22;62994;52.126;5.596;2023-04-15T02:55:21;9.00;99.90
17565;DHT22;62994;52.126;5.596;2023-04-15T02:57:48;8.90;99.90
17565;DHT22;62994;52.126;5.596;2023-04-15T03:00:15;8.90;99.90
17565;DHT22;62994;52.126;5.596;2023-04-15T03:02:44;8.90;99.90
17565;DHT22;62994;52.126;5.596;2023-04-15T03:05:12;8.80;99.90
17565;DHT22;62994;52.126;5.596;2023-04-15T03:07:40;8.80;99.90
17565;DHT22;62994;52.126;5.596;2023-04-15T03:10:09;8.70;99.90
17565;DHT22;62994;52.126;5.596;2023-04-15T03:12:36;8.70;99.90
17565;DHT22;62994;52.126;5.596;2023-04-15T03:15:04;8.70;99.90
17565;DHT22;62994;52.126;5.596;2023-04-15T03:17:32;8.80;99.90
17565;DHT22;62994;52.126;5.596;2023-04-15T03:20:00;8.80;99.90
17565;DHT22;62994;52.126;5.596;2023-04-15T03:22:27;8.70;99.90
17565;DHT22;62994;52.126;5.596;2023-04-15T03:24:53;8.70;99.90
17565;DHT22;62994;52.126;5.596;2023-04-15T03:27:22;8.70;99.90
17565;DHT22;62994;52.126;5.596;2023-04-15T03:29:49;8.70;99.90
17565;DHT22;62994;52.126;5.596;2023-04-15T03:32:16;8.70;99.90
17565;DHT22;62994;52.126;5.596;2023-04-15T03:34:43;8.80;99.90
17565;DHT22;62994;52.126;5.596;2023-04-15T03:37:10;8.80;99.90
17565;DHT22;62994;52.126;5.596;2023-04-15T03:39:37;8.80;99.90
17565;DHT22;62994;52.126;5.596;2023-04-15T03:42:06;8.80;99.90
17565;DHT22;62994;52.126;5.596;2023-04-15T03:44:35;8.80;99.90
17565;DHT22;62994;52.126;5.596;2023-04-15T03:47:02;8.80;99.90
17565;DHT22;62994;52.126;5.596;2023-04-15T03:49:29;8.80;99.90
17565;DHT22;62994;52.126;5.596;2023-04-15T03:51:56;8.80;99.90
17565;DHT22;62994;52.126;5.596;2023-04-15T03:54:23;8.70;99.90
17565;DHT22;62994;52.126;5.596;2023-04-15T03:56:50;8.60;99.90
17565;DHT22;62994;52.126;5.596;2023-04-15T03:59:17;8.60;99.90
17565;DHT22;62994;52.126;5.596;2023-04-15T04:01:45;8.60;99.90
17565;DHT22;62994;52.126;5.596;2023-04-15T04:04:12;8.60;99.90
17565;DHT22;62994;52.126;5.596;2023-04-15T04:06:39;8.60;99.90
17565;DHT22;62994;52.126;5.596;2023-04-15T04:09:06;8.50;99.90
17565;DHT22;62994;52.126;5.596;2023-04-15T04:11:33;8.50;99.90
17565;DHT22;62994;52.126;5.596;2023-04-15T04:14:01;8.40;99.90
17565;DHT22;62994;52.126;5.596;2023-04-15T04:16:28;8.50;99.90
17565;DHT22;62994;52.126;5.596;2023-04-15T04:18:56;8.40;99.90
17565;DHT22;62994;52.126;5.596;2023-04-15T04:21:23;8.40;99.90
17565;DHT22;62994;52.126;5.596;2023-04-15T04:23:51;8.40;99.90
17565;DHT22;62994;52.126;5.596;2023-04-15T04:26:18;8.40;99.90
17565;DHT22;62994;52.126;5.596;2023-04-15T04:28:45;8.40;99.90
17565;DHT22;62994;52.126;5.596;2023-04-15T04:31:12;8.40;99.90
17565;DHT22;62994;52.126;5.596;2023-04-15T04:33:39;8.30;99.90
17565;DHT22;62994;52.126;5.596;2023-04-15T04:36:08;8.30;99.90
17565;DHT22;62994;52.126;5.596;2023-04-15T04:38:35;8.20;99.90
17565;DHT22;62994;52.126;5.596;2023-04-15T04:41:02;8.20;99.90
17565;DHT22;62994;52.126;5.596;2023-04-15T04:43:29;8.20;99.90
17565;DHT22;62994;52.126;5.596;2023-04-15T04:45:56;8.10;99.90
17565;DHT22;62994;52.126;5.596;2023-04-15T04:48:23;8.10;99.90
17565;DHT22;62994;52.126;5.596;2023-04-15T04:50:50;8.10;99.90
17565;DHT22;62994;52.126;5.596;2023-04-15T04:53:19;8.10;99.90
17565;DHT22;62994;52.126;5.596;2023-04-15T04:55:46;8.10;99.90
17565;DHT22;62994;52.126;5.596;2023-04-15T04:58:13;8.10;99.90
17565;DHT22;62994;52.126;5.596;2023-04-15T05:00:40;8.00;99.90
17565;DHT22;62994;52.126;5.596;2023-04-15T05:03:07;8.00;99.90
17565;DHT22;62994;52.126;5.596;2023-04-15T05:05:39;8.00;99.90
17565;DHT22;62994;52.126;5.596;2023-04-15T05:08:13;8.00;99.90
17565;DHT22;62994;52.126;5.596;2023-04-15T05:10:42;8.00;99.90
17565;DHT22;62994;52.126;5.596;2023-04-15T05:13:09;8.00;99.90
17565;DHT22;62994;52.126;5.596;2023-04-15T05:15:41;8.00;99.90
17565;DHT22;62994;52.126;5.596;2023-04-15T05:18:09;8.10;99.90
17565;DHT22;62994;52.126;5.596;2023-04-15T05:20:36;8.10;99.90
17565;DHT22;62994;52.126;5.596;2023-04-15T05:23:04;8.00;99.90
17565;DHT22;62994;52.126;5.596;2023-04-15T05:25:31;8.10;99.90
17565;DHT22;62994;52.126;5.596;2023-04-15T05:27:59;8.00;99.90
17565;DHT22;62994;52.126;5.596;2023-04-15T05:30:26;8.00;99.90
17565;DHT22;62994;52.126;5.596;2023-04-15T05:32:53;8.00;99.90
17565;DHT22;62994;52.126;5.596;2023-04-15T05:35:20;7.90;99.90
17565;DHT22;62994;52.126;5.596;2023-04-15T05:37:47;7.80;99.90
17565;DHT22;62994;52.126;5.596;2023-04-15T05:40:14;7.90;99.90
17565;DHT22;62994;52.126;5.596;2023-04-15T05:42:41;7.90;99.90
17565;DHT22;62994;52.126;5.596;2023-04-15T05:45:10;7.90;99.90
17565;DHT22;62994;52.126;5.596;2023-04-15T05:47:38;7.90;99.90
17565;DHT22;62994;52.126;5.596;2023-04-15T05:50:05;7.90;99.90
17565;DHT22;62994;52.126;5.596;2023-04-15T05:52:32;7.90;99.90
17565;DHT22;62994;52.126;5.596;2023-04-15T05:55:00;7.90;99.90
17565;DHT22;62994;52.126;5.596;2023-04-15T05:57:27;7.90;99.90
17565;DHT22;62994;52.126;5.596;2023-04-15T05:59:54;7.90;99.90
17565;DHT22;62994;52.126;5.596;2023-04-15T06:02:23;7.90;99.90
17565;DHT22;62994;52.126;5.596;2023-04-15T06:04:51;7.90;99.90
17565;DHT22;62994;52.126;5.596;2023-04-15T06:07:18;8.00;99.90
17565;DHT22;62994;52.126;5.596;2023-04-15T06:09:45;8.00;99.90
17565;DHT22;62994;52.126;5.596;2023-04-15T06:12:15;8.00;99.90
17565;DHT22;62994;52.126;5.596;2023-04-15T06:14:42;8.10;99.90
17565;DHT22;62994;52.126;5.596;2023-04-15T06:17:09;8.10;99.90
17565;DHT22;62994;52.126;5.596;2023-04-15T06:19:40;8.10;99.90
17565;DHT22;62994;52.126;5.596;2023-04-15T06:22:09;8.10;99.90
17565;DHT22;62994;52.126;5.596;2023-04-15T06:24:35;8.20;99.90
17565;DHT22;62994;52.126;5.596;2023-04-15T06:27:03;8.20;99.90
17565;DHT22;62994;52.126;5.596;2023-04-15T06:29:30;8.20;99.90
17565;DHT22;62994;52.126;5.596;2023-04-15T06:31:57;8.20;99.90
17565;DHT22;62994;52.126;5.596;2023-04-15T06:34:27;8.30;99.90
17565;DHT22;62994;52.126;5.596;2023-04-15T06:37:00;8.30;99.90
17565;DHT22;62994;52.126;5.596;2023-04-15T06:39:28;8.30;99.90
17565;DHT22;62994;52.126;5.596;2023-04-15T06:41:55;8.40;99.90
17565;DHT22;62994;52.126;5.596;2023-04-15T06:44:22;8.50;99.90
17565;DHT22;62994;52.126;5.596;2023-04-15T06:46:49;8.50;99.90
17565;DHT22;62994;52.126;5.596;2023-04-15T06:49:15;8.60;99.90
17565;DHT22;62994;52.126;5.596;2023-04-15T06:51:42;8.60;99.90
17565;DHT22;62994;52.126;5.596;2023-04-15T06:54:11;8.70;99.90
17565;DHT22;62994;52.126;5.596;2023-04-15T06:56:38;8.70;99.90
17565;DHT22;62994;52.126;5.596;2023-04-15T06:59:06;8.80;99.90
17565;DHT22;62994;52.126;5.596;2023-04-15T07:01:33;8.90;99.90
17565;DHT22;62994;52.126;5.596;2023-04-15T07:04:00;8.90;99.90
17565;DHT22;62994;52.126;5.596;2023-04-15T07:06:27;8.90;99.90
17565;DHT22;62994;52.126;5.596;2023-04-15T07:08:54;9.00;99.90
17565;DHT22;62994;52.126;5.596;2023-04-15T07:11:25;9.00;99.90
17565;DHT22;62994;52.126;5.596;2023-04-15T07:13:52;9.10;99.90
17565;DHT22;62994;52.126;5.596;2023-04-15T07:16:19;9.10;99.90
17565;DHT22;62994;52.126;5.596;2023-04-15T07:18:46;9.20;99.90
17565;DHT22;62994;52.126;5.596;2023-04-15T07:21:13;9.30;99.90
17565;DHT22;62994;52.126;5.596;2023-04-15T07:23:41;9.40;99.90
17565;DHT22;62994;52.126;5.596;2023-04-15T07:26:08;9.50;99.90
17565;DHT22;62994;52.126;5.596;2023-04-15T07:28:37;9.50;99.90
17565;DHT22;62994;52.126;5.596;2023-04-15T07:31:04;9.60;99.90
17565;DHT22;62994;52.126;5.596;2023-04-15T07:33:31;9.60;99.90
17565;DHT22;62994;52.126;5.596;2023-04-15T07:35:58;9.60;99.90
17565;DHT22;62994;52.126;5.596;2023-04-15T07:38:25;9.60;99.90
17565;DHT22;62994;52.126;5.596;2023-04-15T07:40:52;9.60;99.90
17565;DHT22;62994;52.126;5.596;2023-04-15T07:43:19;9.70;99.90
17565;DHT22;62994;52.126;5.596;2023-04-15T07:45:48;9.70;99.90
17565;DHT22;62994;52.126;5.596;2023-04-15T07:48:15;9.80;99.90
17565;DHT22;62994;52.126;5.596;2023-04-15T07:50:42;9.90;99.90
17565;DHT22;62994;52.126;5.596;2023-04-15T07:53:09;9.90;99.90
17565;DHT22;62994;52.126;5.596;2023-04-15T07:55:36;9.90;99.90
17565;DHT22;62994;52.126;5.596;2023-04-15T07:58:03;10.00;99.90
17565;DHT22;62994;52.126;5.596;2023-04-15T08:00:31;10.00;99.90
17565;DHT22;62994;52.126;5.596;2023-04-15T08:02:59;10.00;99.90
17565;DHT22;62994;52.126;5.596;2023-04-15T08:05:26;10.10;99.90
17565;DHT22;62994;52.126;5.596;2023-04-15T08:07:53;10.20;99.90
17565;DHT22;62994;52.126;5.596;2023-04-15T08:10:21;10.30;99.90
17565;DHT22;62994;52.126;5.596;2023-04-15T08:12:48;10.40;99.90
17565;DHT22;62994;52.126;5.596;2023-04-15T08:15:19;10.40;99.90
17565;DHT22;62994;52.126;5.596;2023-04-15T08:17:46;10.40;99.90
17565;DHT22;62994;52.126;5.596;2023-04-15T08:20:14;10.40;99.90
17565;DHT22;62994;52.126;5.596;2023-04-15T08:22:42;10.50;99.90
17565;DHT22;62994;52.126;5.596;2023-04-15T08:25:09;10.50;99.90
17565;DHT22;62994;52.126;5.596;2023-04-15T08:27:36;10.60;99.90
17565;DHT22;62994;52.126;5.596;2023-04-15T08:30:05;10.60;99.90
17565;DHT22;62994;52.126;5.596;2023-04-15T08:32:32;10.80;99.90
17565;DHT22;62994;52.126;5.596;2023-04-15T08:34:59;11.00;99.90
17565;DHT22;62994;52.126;5.596;2023-04-15T08:37:27;11.10;99.90
17565;DHT22;62994;52.126;5.596;2023-04-15T08:39:55;11.10;99.90
17565;DHT22;62994;52.126;5.596;2023-04-15T08:42:25;11.10;99.90
17565;DHT22;62994;52.126;5.596;2023-04-15T08:44:54;11.10;99.90
17565;DHT22;62994;52.126;5.596;2023-04-15T08:47:23;11.20;99.90
17565;DHT22;62994;52.126;5.596;2023-04-15T08:49:54;11.20;99.90
17565;DHT22;62994;52.126;5.596;2023-04-15T08:52:24;11.20;99.90
17565;DHT22;62994;52.126;5.596;2023-04-15T08:54:55;11.20;99.90
17565;DHT22;62994;52.126;5.596;2023-04-15T08:57:24;11.30;99.90
17565;DHT22;62994;52.126;5.596;2023-04-15T08:59:52;11.40;99.90
17565;DHT22;62994;52.126;5.596;2023-04-15T09:02:20;11.40;99.90
17565;DHT22;62994;52.126;5.596;2023-04-15T09:04:52;11.40;99.90
17565;DHT22;62994;52.126;5.596;2023-04-15T09:07:19;11.40;99.90
17565;DHT22;62994;52.126;5.596;2023-04-15T09:09:47;11.50;99.90
17565;DHT22;62994;52.126;5.596;2023-04-15T09:12:16;11.60;99.90
17565;DHT22;62994;52.126;5.596;2023-04-15T09:14:57;11.60;99.90
17565;DHT22;62994;52.126;5.596;2023-04-15T09:20:11;11.80;99.90
17565;DHT22;62994;52.126;5.596;2023-04-15T09:22:39;11.90;99.90
17565;DHT22;62994;52.126;5.596;2023-04-15T09:25:25;11.90;99.90
17565;DHT22;62994;52.126;5.596;2023-04-15T09:27:56;12.00;99.90
17565;DHT22;62994;52.126;5.596;2023-04-15T09:30:24;12.10;99.90
17565;DHT22;62994;52.126;5.596;2023-04-15T09:32:54;12.10;99.90
17565;DHT22;62994;52.126;5.596;2023-04-15T09:35:25;12.20;99.90
17565;DHT22;62994;52.126;5.596;2023-04-15T09:38:00;12.30;99.90
17565;DHT22;62994;52.126;5.596;2023-04-15T09:40:32;12.40;99.90
17565;DHT22;62994;52.126;5.596;2023-04-15T09:43:00;12.50;99.90
17565;DHT22;62994;52.126;5.596;2023-04-15T09:45:28;12.50;99.90
17565;DHT22;62994;52.126;5.596;2023-04-15T09:47:56;12.60;99.90
17565;DHT22;62994;52.126;5.596;2023-04-15T09:50:26;12.70;99.90
17565;DHT22;62994;52.126;5.596;2023-04-15T09:52:54;12.80;99.90
17565;DHT22;62994;52.126;5.596;2023-04-15T09:55:22;12.90;99.90
17565;DHT22;62994;52.126;5.596;2023-04-15T09:57:49;12.90;99.90
17565;DHT22;62994;52.126;5.596;2023-04-15T10:00:17;13.00;99.90
17565;DHT22;62994;52.126;5.596;2023-04-15T10:02:45;13.10;99.90
17565;DHT22;62994;52.126;5.596;2023-04-15T10:05:13;13.10;99.90
17565;DHT22;62994;52.126;5.596;2023-04-15T10:07:41;13.20;99.90
17565;DHT22;62994;52.126;5.596;2023-04-15T10:10:09;13.30;99.90
17565;DHT22;62994;52.126;5.596;2023-04-15T10:12:37;13.40;99.90
17565;DHT22;62994;52.126;5.596;2023-04-15T10:15:10;13.40;99.90
17565;DHT22;62994;52.126;5.596;2023-04-15T10:17:43;13.50;99.90
17565;DHT22;62994;52.126;5.596;2023-04-15T10:20:11;13.60;99.90
17565;DHT22;62994;52.126;5.596;2023-04-15T10:22:39;13.70;99.90
17565;DHT22;62994;52.126;5.596;2023-04-15T10:25:09;13.90;99.90
17565;DHT22;62994;52.126;5.596;2023-04-15T10:27:37;14.00;99.90
17565;DHT22;62994;52.126;5.596;2023-04-15T10:30:06;14.10;99.90
17565;DHT22;62994;52.126;5.596;2023-04-15T10:32:33;14.20;99.90
17565;DHT22;62994;52.126;5.596;2023-04-15T10:35:03;14.10;99.90
17565;DHT22;62994;52.126;5.596;2023-04-15T10:37:34;14.10;99.90
17565;DHT22;62994;52.126;5.596;2023-04-15T10:40:23;14.20;99.90
17565;DHT22;62994;52.126;5.596;2023-04-15T10:42:52;14.40;99.90
17565;DHT22;62994;52.126;5.596;2023-04-15T10:45:19;14.50;99.90
17565;DHT22;62994;52.126;5.596;2023-04-15T10:47:51;14.50;99.90
17565;DHT22;62994;52.126;5.596;2023-04-15T10:50:20;14.70;99.90
17565;DHT22;62994;52.126;5.596;2023-04-15T10:52:49;14.70;99.90
17565;DHT22;62994;52.126;5.596;2023-04-15T10:55:19;14.70;99.90
17565;DHT22;62994;52.126;5.596;2023-04-15T10:57:51;14.80;99.90
17565;DHT22;62994;52.126;5.596;2023-04-15T11:00:19;14.90;99.90
17565;DHT22;62994;52.126;5.596;2023-04-15T11:02:51;14.90;99.90
17565;DHT22;62994;52.126;5.596;2023-04-15T11:05:22;15.00;99.90
17565;DHT22;62994;52.126;5.596;2023-04-15T11:07:54;14.90;99.90
17565;DHT22;62994;52.126;5.596;2023-04-15T11:10:52;14.90;99.90
17565;DHT22;62994;52.126;5.596;2023-04-15T11:13:26;14.90;99.90
17565;DHT22;62994;52.126;5.596;2023-04-15T11:16:02;14.90;99.90
17565;DHT22;62994;52.126;5.596;2023-04-15T11:18:31;14.90;99.90
17565;DHT22;62994;52.126;5.596;2023-04-15T11:21:04;15.00;99.90
17565;DHT22;62994;52.126;5.596;2023-04-15T11:23:37;15.00;99.90
17565;DHT22;62994;52.126;5.596;2023-04-15T11:26:05;15.00;99.90
17565;DHT22;62994;52.126;5.596;2023-04-15T11:28:34;15.00;99.90
17565;DHT22;62994;52.126;5.596;2023-04-15T11:31:06;15.10;99.90
17565;DHT22;62994;52.126;5.596;2023-04-15T11:33:45;15.10;99.90
17565;DHT22;62994;52.126;5.596;2023-04-15T11:36:14;15.10;99.90
17565;DHT22;62994;52.126;5.596;2023-04-15T11:38:45;15.10;99.90
17565;DHT22;62994;52.126;5.596;2023-04-15T11:41:13;15.20;99.90
17565;DHT22;62994;52.126;5.596;2023-04-15T11:43:41;15.30;99.90
17565;DHT22;62994;52.126;5.596;2023-04-15T11:46:08;15.40;99.90
17565;DHT22;62994;52.126;5.596;2023-04-15T11:48:42;15.40;99.90
17565;DHT22;62994;52.126;5.596;2023-04-15T11:51:10;15.30;99.90
17565;DHT22;62994;52.126;5.596;2023-04-15T11:53:41;15.30;99.90
17565;DHT22;62994;52.126;5.596;2023-04-15T11:56:10;15.30;99.90
17565;DHT22;62994;52.126;5.596;2023-04-15T11:58:43;15.20;99.90
17565;DHT22;62994;52.126;5.596;2023-04-15T12:01:11;15.20;99.90
17565;DHT22;62994;52.126;5.596;2023-04-15T12:03:41;15.30;99.90
17565;DHT22;62994;52.126;5.596;2023-04-15T12:06:11;15.40;99.90
17565;DHT22;62994;52.126;5.596;2023-04-15T12:09:00;15.40;99.90
17565;DHT22;62994;52.126;5.596;2023-04-15T12:11:33;15.50;99.90
17565;DHT22;62994;52.126;5.596;2023-04-15T12:14:06;15.50;99.90
17565;DHT22;62994;52.126;5.596;2023-04-15T12:16:35;15.30;99.90
17565;DHT22;62994;52.126;5.596;2023-04-15T12:19:05;15.20;99.90
17565;DHT22;62994;52.126;5.596;2023-04-15T12:21:35;15.20;99.90
17565;DHT22;62994;52.126;5.596;2023-04-15T12:24:05;15.30;99.90
17565;DHT22;62994;52.126;5.596;2023-04-15T12:26:35;15.40;99.90
17565;DHT22;62994;52.126;5.596;2023-04-15T12:29:04;15.50;99.90
17565;DHT22;62994;52.126;5.596;2023-04-15T12:31:31;15.30;99.90
17565;DHT22;62994;52.126;5.596;2023-04-15T12:33:59;15.40;99.90
17565;DHT22;62994;52.126;5.596;2023-04-15T12:36:26;15.30;99.90
17565;DHT22;62994;52.126;5.596;2023-04-15T12:38:54;15.20;99.90
17565;DHT22;62994;52.126;5.596;2023-04-15T12:41:23;15.30;99.90
17565;DHT22;62994;52.126;5.596;2023-04-15T12:43:50;15.40;99.90
17565;DHT22;62994;52.126;5.596;2023-04-15T12:46:17;15.40;99.90
17565;DHT22;62994;52.126;5.596;2023-04-15T12:48:44;15.40;99.90
17565;DHT22;62994;52.126;5.596;2023-04-15T12:51:12;15.40;99.90
17565;DHT22;62994;52.126;5.596;2023-04-15T12:53:39;15.50;99.90
17565;DHT22;62994;52.126;5.596;2023-04-15T12:56:06;15.50;99.90
17565;DHT22;62994;52.126;5.596;2023-04-15T12:58:34;15.40;99.90
17565;DHT22;62994;52.126;5.596;2023-04-15T13:01:01;15.40;99.90
17565;DHT22;62994;52.126;5.596;2023-04-15T13:03:28;15.40;99.90
17565;DHT22;62994;52.126;5.596;2023-04-15T13:05:55;15.40;99.90
17565;DHT22;62994;52.126;5.596;2023-04-15T13:08:27;15.40;99.90
17565;DHT22;62994;52.126;5.596;2023-04-15T13:10:55;15.20;99.90
17565;DHT22;62994;52.126;5.596;2023-04-15T13:13:22;15.10;99.90
17565;DHT22;62994;52.126;5.596;2023-04-15T13:15:50;15.10;99.90
17565;DHT22;62994;52.126;5.596;2023-04-15T13:18:17;15.00;99.90
17565;DHT22;62994;52.126;5.596;2023-04-15T13:20:44;14.90;99.90
17565;DHT22;62994;52.126;5.596;2023-04-15T13:23:11;15.00;99.90
17565;DHT22;62994;52.126;5.596;2023-04-15T13:25:38;14.90;99.90
17565;DHT22;62994;52.126;5.596;2023-04-15T13:28:05;14.90;99.90
17565;DHT22;62994;52.126;5.596;2023-04-15T13:30:32;14.90;99.90
17565;DHT22;62994;52.126;5.596;2023-04-15T13:33:00;15.00;99.90
17565;DHT22;62994;52.126;5.596;2023-04-15T13:35:27;15.10;99.90
17565;DHT22;62994;52.126;5.596;2023-04-15T13:37:55;15.10;99.90
17565;DHT22;62994;52.126;5.596;2023-04-15T13:40:22;14.90;99.90
17565;DHT22;62994;52.126;5.596;2023-04-15T13:42:49;14.90;99.90
17565;DHT22;62994;52.126;5.596;2023-04-15T13:45:16;14.70;99.90
17565;DHT22;62994;52.126;5.596;2023-04-15T13:47:43;14.70;99.90
17565;DHT22;62994;52.126;5.596;2023-04-15T13:50:11;14.60;99.90
17565;DHT22;62994;52.126;5.596;2023-04-15T13:52:38;14.60;99.90
17565;DHT22;62994;52.126;5.596;2023-04-15T13:55:06;14.30;99.90
17565;DHT22;62994;52.126;5.596;2023-04-15T13:57:33;14.30;99.90
17565;DHT22;62994;52.126;5.596;2023-04-15T14:00:01;14.30;99.90
17565;DHT22;62994;52.126;5.596;2023-04-15T14:02:29;14.30;99.90
17565;DHT22;62994;52.126;5.596;2023-04-15T14:04:56;14.30;99.90
17565;DHT22;62994;52.126;5.596;2023-04-15T14:07:24;14.10;99.90
17565;DHT22;62994;52.126;5.596;2023-04-15T14:09:51;14.20;99.90
17565;DHT22;62994;52.126;5.596;2023-04-15T14:12:18;14.10;99.90
17565;DHT22;62994;52.126;5.596;2023-04-15T14:14:45;14.10;99.90
17565;DHT22;62994;52.126;5.596;2023-04-15T14:17:12;14.00;99.90
17565;DHT22;62994;52.126;5.596;2023-04-15T14:19:39;14.10;99.90
17565;DHT22;62994;52.126;5.596;2023-04-15T14:22:06;14.20;99.90
17565;DHT22;62994;52.126;5.596;2023-04-15T14:24:34;14.00;99.90
17565;DHT22;62994;52.126;5.596;2023-04-15T14:27:02;13.80;99.90
17565;DHT22;62994;52.126;5.596;2023-04-15T14:29:29;13.80;99.90
17565;DHT22;62994;52.126;5.596;2023-04-15T14:31:56;13.80;99.90
17565;DHT22;62994;52.126;5.596;2023-04-15T14:34:23;13.70;99.90
17565;DHT22;62994;52.126;5.596;2023-04-15T14:36:50;13.70;99.90
17565;DHT22;62994;52.126;5.596;2023-04-15T14:39:18;13.60;99.90
17565;DHT22;62994;52.126;5.596;2023-04-15T14:41:46;13.70;99.90
17565;DHT22;62994;52.126;5.596;2023-04-15T14:44:13;13.50;99.90
17565;DHT22;62994;52.126;5.596;2023-04-15T14:46:40;13.50;99.90
17565;DHT22;62994;52.126;5.596;2023-04-15T14:49:07;13.50;99.90
17565;DHT22;62994;52.126;5.596;2023-04-15T14:51:34;13.50;99.90
17565;DHT22;62994;52.126;5.596;2023-04-15T14:54:01;13.50;99.90
17565;DHT22;62994;52.126;5.596;2023-04-15T14:56:28;13.50;99.90
17565;DHT22;62994;52.126;5.596;2023-04-15T14:58:56;13.50;99.90
17565;DHT22;62994;52.126;5.596;2023-04-15T15:01:23;13.50;99.90
17565;DHT22;62994;52.126;5.596;2023-04-15T15:03:50;13.50;99.90
17565;DHT22;62994;52.126;5.596;2023-04-15T15:06:19;13.50;99.90
17565;DHT22;62994;52.126;5.596;2023-04-15T15:08:47;13.40;99.90
17565;DHT22;62994;52.126;5.596;2023-04-15T15:11:17;13.40;99.90
17565;DHT22;62994;52.126;5.596;2023-04-15T15:13:44;13.30;99.90
17565;DHT22;62994;52.126;5.596;2023-04-15T15:16:17;13.30;99.90
17565;DHT22;62994;52.126;5.596;2023-04-15T15:18:50;13.20;99.90
17565;DHT22;62994;52.126;5.596;2023-04-15T15:21:17;13.20;99.90
17565;DHT22;62994;52.126;5.596;2023-04-15T15:23:45;13.10;99.90
17565;DHT22;62994;52.126;5.596;2023-04-15T15:26:12;13.00;99.90
17565;DHT22;62994;52.126;5.596;2023-04-15T15:28:39;13.10;99.90
17565;DHT22;62994;52.126;5.596;2023-04-15T15:31:07;13.00;99.90
17565;DHT22;62994;52.126;5.596;2023-04-15T15:33:35;13.00;99.90
17565;DHT22;62994;52.126;5.596;2023-04-15T15:36:04;13.00;99.90
17565;DHT22;62994;52.126;5.596;2023-04-15T15:38:31;13.00;99.90
17565;DHT22;62994;52.126;5.596;2023-04-15T15:40:58;13.00;99.90
17565;DHT22;62994;52.126;5.596;2023-04-15T15:43:25;13.10;99.90
17565;DHT22;62994;52.126;5.596;2023-04-15T15:45:52;13.00;99.90